Time;durP1;ratioP1;P1;durP2;ratioP2;P2;SDS_P1;SDS_P2;PMS_P1;PMS_P2;Temp;Humidity;BMP_temperature;BMP_pressure;BME280_temperature;BME280_humidity;BME280_pressure;Samples;Min_cycle;Max_cycle;Signal;HPM_P1;HPM_P2
2021/10/07 00:00:13;;;;;;;3.83;1.17;;;13.40;85.10;;;;;;4866632;29;20053;-88
2021/10/07 00:02:42;;;;;;;6.68;1.70;;;13.40;85.10;;;;;;4892531;29;20060;-89
2021/10/07 00:05:11;;;;;;;6.10;1.40;;;13.40;85.10;;;;;;4872810;29;20503;-88
2021/10/07 00:07:39;;;;;;;11.07;1.63;;;13.40;85.10;;;;;;4862444;29;20068;-87
2021/10/07 00:10:07;;;;;;;10.73;1.80;;;13.40;85.20;;;;;;4873477;29;20048;-86
2021/10/07 00:12:35;;;;;;;7.50;1.55;;;13.40;85.20;;;;;;4896647;29;20053;-88
2021/10/07 00:15:04;;;;;;;11.85;1.83;;;13.40;85.10;;;;;;4893013;29;20060;-89
2021/10/07 00:17:32;;;;;;;7.18;1.60;;;13.40;85.20;;;;;;4879830;29;20049;-86
2021/10/07 00:20:00;;;;;;;10.73;1.98;;;13.30;85.20;;;;;;4863446;29;20407;-88
2021/10/07 00:22:27;;;;;;;6.80;1.70;;;13.30;85.20;;;;;;4848412;29;20049;-87
2021/10/07 00:24:55;;;;;;;5.22;1.45;;;13.30;85.20;;;;;;4896255;29;20059;-87
2021/10/07 00:27:23;;;;;;;9.77;1.88;;;13.30;85.30;;;;;;4883361;29;20048;-87
2021/10/07 00:29:54;;;;;;;6.55;1.42;;;13.30;85.30;;;;;;4898487;29;20056;-88
2021/10/07 00:32:33;;;;;;;15.27;1.77;;;13.30;85.30;;;;;;4883596;29;20044;-89
2021/10/07 00:40:06;;;;;;;5.40;1.63;;;13.30;85.50;;;;;;4878909;29;19927;-88
2021/10/07 00:42:34;;;;;;;9.38;1.40;;;13.30;85.50;;;;;;4880906;29;20060;-88
2021/10/07 00:45:03;;;;;;;2.58;1.02;;;13.30;85.60;;;;;;4897963;29;20068;-88
2021/10/07 00:47:31;;;;;;;6.13;1.45;;;13.30;85.70;;;;;;4879025;29;20052;-88
2021/10/07 00:49:59;;;;;;;5.82;1.35;;;13.30;85.70;;;;;;4898324;29;20070;-88
2021/10/07 00:52:27;;;;;;;6.35;1.35;;;13.30;85.80;;;;;;4927899;29;20056;-87
2021/10/07 00:54:56;;;;;;;5.43;1.48;;;13.30;85.90;;;;;;4903686;29;20102;-89
2021/10/07 00:57:24;;;;;;;4.57;1.50;;;13.30;86.00;;;;;;4895739;29;20048;-86
2021/10/07 00:59:52;;;;;;;13.20;1.83;;;13.30;86.00;;;;;;4875805;29;20052;-87
2021/10/07 01:02:19;;;;;;;7.22;1.50;;;13.30;86.10;;;;;;4877389;29;20616;-89
2021/10/07 01:04:47;;;;;;;4.07;1.25;;;13.30;86.20;;;;;;4879555;29;20038;-87
2021/10/07 01:07:16;;;;;;;6.80;1.75;;;13.30;86.20;;;;;;4879255;29;20068;-87
2021/10/07 01:09:45;;;;;;;8.95;1.45;;;13.30;86.30;;;;;;4867552;29;20052;-88
2021/10/07 01:12:13;;;;;;;5.70;1.80;;;13.30;86.30;;;;;;4880702;29;20056;-87
2021/10/07 01:14:52;;;;;;;5.85;1.83;;;13.30;86.40;;;;;;4897299;29;20410;-87
2021/10/07 01:17:26;;;;;;;6.78;1.63;;;13.30;86.40;;;;;;4898612;29;20048;-87
2021/10/07 01:19:56;;;;;;;5.88;1.60;;;13.30;86.50;;;;;;4879853;29;20057;-87
2021/10/07 01:22:25;;;;;;;8.45;1.70;;;13.30;86.50;;;;;;4879494;29;20053;-88
2021/10/07 01:24:55;;;;;;;7.18;2.20;;;13.30;86.50;;;;;;4879080;29;20045;-86
2021/10/07 01:27:28;;;;;;;6.93;1.80;;;13.30;86.60;;;;;;4878301;29;20510;-88
2021/10/07 01:30:04;;;;;;;12.15;2.20;;;13.30;86.60;;;;;;4897485;29;20391;-88
2021/10/07 01:32:36;;;;;;;6.40;2.08;;;13.30;86.70;;;;;;4880944;29;20052;-88
2021/10/07 01:35:06;;;;;;;8.23;2.22;;;13.30;86.70;;;;;;4897482;29;20064;-88
2021/10/07 01:37:34;;;;;;;8.40;2.08;;;13.30;86.80;;;;;;4897697;29;20059;-86
2021/10/07 01:40:04;;;;;;;6.20;1.40;;;13.30;86.80;;;;;;4882500;29;20057;-87
2021/10/07 01:42:32;;;;;;;7.07;1.90;;;13.30;86.90;;;;;;4886575;29;20509;-86
2021/10/07 01:45:00;;;;;;;9.43;1.85;;;13.30;86.90;;;;;;4883975;29;20052;-87
2021/10/07 01:47:27;;;;;;;5.85;1.75;;;13.30;87.00;;;;;;4867374;29;20506;-86
2021/10/07 01:49:55;;;;;;;6.55;2.05;;;13.30;87.00;;;;;;4881701;29;20045;-86
2021/10/07 01:52:22;;;;;;;6.57;1.85;;;13.30;87.10;;;;;;4898773;29;20056;-88
2021/10/07 01:54:50;;;;;;;6.25;1.83;;;13.30;87.10;;;;;;4900267;29;20051;-88
2021/10/07 01:57:17;;;;;;;7.97;2.40;;;13.30;87.20;;;;;;4883474;29;20056;-86
2021/10/07 01:59:45;;;;;;;8.52;2.30;;;13.30;87.20;;;;;;4900185;29;20552;-86
2021/10/07 02:02:12;;;;;;;8.25;2.50;;;13.30;87.20;;;;;;4890369;29;20056;-87
2021/10/07 02:04:40;;;;;;;7.90;3.15;;;13.30;87.30;;;;;;4890264;29;20060;-87
2021/10/07 02:07:08;;;;;;;10.70;2.80;;;13.30;87.30;;;;;;4869985;29;20052;-86
2021/10/07 02:09:35;;;;;;;10.35;3.72;;;13.30;87.40;;;;;;4889148;29;20061;-86
2021/10/07 02:12:03;;;;;;;8.43;3.30;;;13.30;87.40;;;;;;4868097;29;20056;-86
2021/10/07 02:14:31;;;;;;;9.20;3.60;;;13.30;87.50;;;;;;4895224;29;20435;-86
2021/10/07 02:16:58;;;;;;;10.85;3.67;;;13.30;87.50;;;;;;4880907;29;20400;-87
2021/10/07 02:19:26;;;;;;;5.53;3.28;;;13.30;87.50;;;;;;4883607;29;20049;-87
2021/10/07 02:21:53;;;;;;;10.23;3.60;;;13.30;87.50;;;;;;4880045;29;20407;-87
2021/10/07 02:24:21;;;;;;;7.15;3.63;;;13.30;87.60;;;;;;4861701;29;20053;-88
2021/10/07 02:26:49;;;;;;;11.35;4.07;;;13.30;87.60;;;;;;4882624;29;20052;-88
2021/10/07 02:29:16;;;;;;;7.78;3.75;;;13.30;87.70;;;;;;4894371;29;20060;-88
2021/10/07 02:31:44;;;;;;;11.60;3.90;;;13.30;87.80;;;;;;4880783;29;20053;-87
2021/10/07 02:34:11;;;;;;;8.05;4.00;;;13.30;87.80;;;;;;4896440;29;20064;-87
2021/10/07 02:36:39;;;;;;;11.00;4.28;;;13.30;87.80;;;;;;4878550;29;20055;-87
2021/10/07 02:39:07;;;;;;;11.70;4.72;;;13.40;87.90;;;;;;4884786;29;20049;-86
2021/10/07 02:41:34;;;;;;;10.70;4.60;;;13.40;88.00;;;;;;4878548;29;20502;-86
2021/10/07 02:44:03;;;;;;;6.90;3.65;;;13.40;88.00;;;;;;4909129;29;20063;-87
2021/10/07 02:46:31;;;;;;;9.98;4.45;;;13.40;88.20;;;;;;4883372;29;20063;-86
2021/10/07 02:48:58;;;;;;;8.25;4.35;;;13.40;88.30;;;;;;4882203;29;20403;-86
2021/10/07 02:51:26;;;;;;;6.70;4.72;;;13.40;88.40;;;;;;4881756;29;20064;-86
2021/10/07 02:53:54;;;;;;;8.23;4.20;;;13.50;88.50;;;;;;4897868;29;20075;-87
2021/10/07 02:56:21;;;;;;;10.98;4.32;;;13.50;88.50;;;;;;4864522;29;20064;-87
2021/10/07 02:58:49;;;;;;;8.20;4.40;;;13.50;88.60;;;;;;4864584;29;20053;-87
2021/10/07 03:01:16;;;;;;;6.50;3.75;;;13.50;88.70;;;;;;4880959;29;20064;-88
2021/10/07 03:03:44;;;;;;;7.25;3.95;;;13.50;88.70;;;;;;4898167;29;20048;-87
2021/10/07 03:06:12;;;;;;;8.05;4.30;;;13.50;88.80;;;;;;4879486;29;20063;-88
2021/10/07 03:08:40;;;;;;;14.18;4.13;;;13.60;88.80;;;;;;4877541;29;20490;-88
2021/10/07 03:11:07;;;;;;;9.30;4.80;;;13.60;88.80;;;;;;4879792;29;20053;-87
2021/10/07 03:13:35;;;;;;;8.40;4.57;;;13.60;88.80;;;;;;4890771;29;20060;-87
2021/10/07 03:16:03;;;;;;;8.73;4.50;;;13.60;88.80;;;;;;4900005;29;20053;-88
2021/10/07 03:18:30;;;;;;;9.80;5.10;;;13.60;88.80;;;;;;4899202;29;20514;-87
2021/10/07 03:20:58;;;;;;;7.07;4.32;;;13.60;88.80;;;;;;4880468;29;20049;-87
2021/10/07 03:23:27;;;;;;;8.13;4.80;;;13.60;88.80;;;;;;4879701;29;20052;-87
2021/10/07 03:25:55;;;;;;;10.07;4.68;;;13.60;88.80;;;;;;4880617;29;20057;-88
2021/10/07 03:28:22;;;;;;;7.32;4.50;;;13.60;88.90;;;;;;4880421;29;20072;-88
2021/10/07 03:30:50;;;;;;;6.65;4.35;;;13.60;88.90;;;;;;4893799;29;20048;-87
2021/10/07 03:33:17;;;;;;;6.75;4.15;;;13.60;89.00;;;;;;4895897;29;20064;-88
2021/10/07 03:35:46;;;;;;;8.50;4.72;;;13.60;89.00;;;;;;4879185;29;20479;-88
2021/10/07 03:38:14;;;;;;;9.57;4.93;;;13.60;89.00;;;;;;4885579;29;20049;-88
2021/10/07 03:40:42;;;;;;;11.43;5.55;;;13.60;89.10;;;;;;4896436;29;20053;-88
2021/10/07 03:43:10;;;;;;;9.30;5.13;;;13.60;89.10;;;;;;4880210;29;20060;-88
2021/10/07 03:45:37;;;;;;;9.45;5.30;;;13.60;89.10;;;;;;4879873;29;20052;-87
2021/10/07 03:48:05;;;;;;;10.93;5.45;;;13.60;89.20;;;;;;4863827;29;20083;-88
2021/10/07 03:50:33;;;;;;;10.55;5.25;;;13.60;89.20;;;;;;4864056;29;20068;-87
2021/10/07 03:53:01;;;;;;;7.35;4.95;;;13.60;89.20;;;;;;4876669;29;20060;-87
2021/10/07 03:55:28;;;;;;;8.30;5.40;;;13.60;89.30;;;;;;4870370;29;20402;-87
2021/10/07 03:57:56;;;;;;;13.35;5.45;;;13.60;89.30;;;;;;4866216;29;20045;-87
2021/10/07 04:00:24;;;;;;;10.65;5.47;;;13.60;89.30;;;;;;4876325;29;20479;-88
2021/10/07 04:02:52;;;;;;;11.32;6.07;;;13.60;89.30;;;;;;4881018;29;20049;-88
2021/10/07 04:05:19;;;;;;;13.23;5.82;;;13.70;89.30;;;;;;4893376;29;20052;-88
2021/10/07 04:07:47;;;;;;;7.88;5.50;;;13.60;89.30;;;;;;4890699;29;20053;-87
2021/10/07 04:10:14;;;;;;;10.55;6.03;;;13.60;89.40;;;;;;4914723;29;20053;-87
2021/10/07 04:12:42;;;;;;;12.30;6.38;;;13.50;89.40;;;;;;4897129;29;20059;-87
2021/10/07 04:15:17;;;;;;;13.35;6.50;;;13.50;89.50;;;;;;4873379;29;20052;-87
2021/10/07 04:17:45;;;;;;;12.60;5.80;;;13.40;89.60;;;;;;4904070;29;20061;-86
2021/10/07 04:20:13;;;;;;;13.60;6.40;;;13.30;89.70;;;;;;4902925;29;20048;-87
2021/10/07 04:22:40;;;;;;;14.18;6.68;;;13.30;89.90;;;;;;4881877;29;20103;-86
2021/10/07 04:25:08;;;;;;;14.35;6.57;;;13.20;90.10;;;;;;4881099;29;20533;-86
2021/10/07 04:27:36;;;;;;;11.88;6.43;;;13.20;90.20;;;;;;4897551;29;20522;-87
2021/10/07 04:30:06;;;;;;;9.15;6.47;;;13.20;90.40;;;;;;4878104;29;20061;-87
2021/10/07 04:32:35;;;;;;;14.73;7.03;;;13.20;90.50;;;;;;4891785;29;20079;-87
2021/10/07 04:35:05;;;;;;;9.57;7.03;;;13.20;90.50;;;;;;4879723;29;20075;-86
2021/10/07 04:37:33;;;;;;;9.27;6.15;;;13.20;90.50;;;;;;4887293;29;20161;-87
2021/10/07 04:40:00;;;;;;;14.93;7.03;;;13.20;90.60;;;;;;4897224;29;20060;-87
2021/10/07 04:42:28;;;;;;;12.13;6.50;;;13.20;90.60;;;;;;4877804;29;20056;-87
2021/10/07 04:44:55;;;;;;;9.85;6.63;;;13.30;90.60;;;;;;4879405;29;20069;-87
2021/10/07 04:47:23;;;;;;;14.95;6.65;;;13.30;90.60;;;;;;4862071;29;20049;-87
2021/10/07 04:49:51;;;;;;;13.25;6.32;;;13.30;90.70;;;;;;4879014;29;20060;-87
2021/10/07 04:52:18;;;;;;;10.32;6.60;;;13.30;90.70;;;;;;4879135;29;20372;-87
2021/10/07 04:54:46;;;;;;;11.68;6.30;;;13.30;90.80;;;;;;4887241;29;20055;-87
2021/10/07 04:57:13;;;;;;;12.07;6.00;;;13.30;90.80;;;;;;4898290;29;20475;-86
2021/10/07 04:59:42;;;;;;;10.38;6.43;;;13.30;90.80;;;;;;4879104;29;20041;-86
2021/10/07 05:02:12;;;;;;;11.63;5.93;;;13.40;90.80;;;;;;4876755;29;20056;-87
2021/10/07 05:04:40;;;;;;;8.50;5.95;;;13.40;90.80;;;;;;4880345;29;20045;-87
2021/10/07 05:07:07;;;;;;;8.60;5.80;;;13.40;90.90;;;;;;4895975;29;20060;-87
2021/10/07 05:09:35;;;;;;;13.48;5.85;;;13.50;90.90;;;;;;4880829;29;20057;-87
2021/10/07 05:12:03;;;;;;;15.10;6.18;;;13.50;90.90;;;;;;4896551;29;20056;-86
2021/10/07 05:14:31;;;;;;;13.75;5.57;;;13.50;90.90;;;;;;4880718;29;20410;-87
2021/10/07 05:16:59;;;;;;;10.38;5.90;;;13.50;91.00;;;;;;4869375;29;20049;-86
2021/10/07 05:19:26;;;;;;;13.02;5.65;;;13.50;91.10;;;;;;4897161;29;20423;-86
2021/10/07 05:21:54;;;;;;;9.23;5.00;;;13.50;91.10;;;;;;4881383;29;20048;-87
2021/10/07 05:24:25;;;;;;;11.75;6.05;;;13.50;91.20;;;;;;4882803;29;20065;-86
2021/10/07 05:26:53;;;;;;;13.60;5.97;;;13.50;91.30;;;;;;4893873;29;20236;-87
2021/10/07 05:29:20;;;;;;;10.65;5.70;;;13.60;91.20;;;;;;4886367;29;20060;-87
2021/10/07 05:31:49;;;;;;;12.88;5.82;;;13.50;91.20;;;;;;4878228;29;20055;-87
2021/10/07 05:34:17;;;;;;;12.55;6.22;;;13.60;91.20;;;;;;4866626;29;20049;-86
2021/10/07 05:36:44;;;;;;;13.48;6.13;;;13.60;91.30;;;;;;4892912;29;20064;-86
2021/10/07 05:39:13;;;;;;;9.38;5.05;;;13.50;91.20;;;;;;4893106;29;20060;-86
2021/10/07 05:41:42;;;;;;;14.18;5.15;;;13.50;91.20;;;;;;4896629;29;20533;-86
2021/10/07 05:44:12;;;;;;;10.63;4.93;;;13.50;91.30;;;;;;4903076;29;20067;-87
2021/10/07 05:46:39;;;;;;;13.07;5.07;;;13.60;91.20;;;;;;4898197;29;20072;-86
2021/10/07 05:49:07;;;;;;;12.32;5.00;;;13.60;91.20;;;;;;4876908;29;20115;-87
2021/10/07 05:51:34;;;;;;;14.23;5.68;;;13.60;91.20;;;;;;4895768;29;20055;-87
2021/10/07 05:54:03;;;;;;;16.33;5.40;;;13.70;91.20;;;;;;4903323;29;20093;-88
2021/10/07 05:56:30;;;;;;;15.95;5.68;;;13.70;91.20;;;;;;4895228;29;20061;-81
2021/10/07 05:58:58;;;;;;;9.77;5.25;;;13.70;91.10;;;;;;4896053;29;20041;-84
2021/10/07 06:01:25;;;;;;;14.40;5.43;;;13.70;91.10;;;;;;4890532;29;20059;-79
2021/10/07 06:03:53;;;;;;;10.52;4.90;;;13.70;91.10;;;;;;4897554;29;20308;-81
2021/10/07 06:06:21;;;;;;;18.58;4.80;;;13.80;91.10;;;;;;4891838;29;20502;-84
2021/10/07 06:08:48;;;;;;;13.63;4.97;;;13.80;91.10;;;;;;4893805;29;20510;-85
2021/10/07 06:11:16;;;;;;;9.68;4.95;;;13.80;91.10;;;;;;4878264;29;20049;-85
2021/10/07 06:13:43;;;;;;;9.35;4.53;;;13.80;91.10;;;;;;4876789;29;20053;-85
2021/10/07 06:16:11;;;;;;;10.05;5.57;;;13.80;91.10;;;;;;4876482;29;20495;-85
2021/10/07 06:18:39;;;;;;;13.18;5.97;;;13.80;91.10;;;;;;4893537;29;20147;-85
2021/10/07 06:21:07;;;;;;;10.48;5.97;;;13.80;91.10;;;;;;4867976;29;20507;-84
2021/10/07 06:23:54;;;;;;;10.23;4.80;;;13.90;91.10;;;;;;4893554;29;20388;-85
2021/10/07 06:26:38;;;;;;;13.80;4.90;;;13.90;91.10;;;;;;4888209;29;20483;-85
2021/10/07 06:29:08;;;;;;;15.13;5.13;;;13.90;91.20;;;;;;4879804;29;20049;-85
2021/10/07 06:31:36;;;;;;;11.50;5.40;;;14.00;91.20;;;;;;4896386;29;20055;-85
2021/10/07 06:34:05;;;;;;;11.68;5.47;;;14.00;91.20;;;;;;4890698;29;20388;-85
2021/10/07 06:36:35;;;;;;;8.90;4.95;;;14.00;91.10;;;;;;4883040;29;20045;-84
2021/10/07 06:39:05;;;;;;;8.70;4.97;;;14.10;91.10;;;;;;4897105;29;20506;-85
2021/10/07 06:41:33;;;;;;;11.85;5.20;;;14.00;91.10;;;;;;4888083;29;20056;-85
2021/10/07 06:44:01;;;;;;;13.48;5.05;;;14.10;91.10;;;;;;4879621;29;20056;-85
2021/10/07 06:46:28;;;;;;;10.90;5.35;;;14.10;91.10;;;;;;4889373;29;20047;-85
2021/10/07 06:48:58;;;;;;;9.35;4.88;;;14.20;91.20;;;;;;4900298;29;20052;-85
2021/10/07 06:51:27;;;;;;;8.45;4.70;;;14.20;91.20;;;;;;4895457;29;20056;-86
2021/10/07 06:53:57;;;;;;;8.95;4.45;;;14.20;91.10;;;;;;4881668;29;20052;-85
2021/10/07 06:56:25;;;;;;;14.35;4.88;;;14.20;91.10;;;;;;4899085;29;20502;-85
2021/10/07 06:58:53;;;;;;;14.88;5.47;;;14.10;91.00;;;;;;4885483;29;20048;-85
2021/10/07 07:01:26;;;;;;;14.40;5.07;;;14.10;91.10;;;;;;4900868;29;20557;-85
2021/10/07 07:03:55;;;;;;;;;;;14.00;91.10;;;;;;4889519;29;20064;-86
2021/10/07 07:06:25;;;;;;;10.18;5.28;;;14.00;91.20;;;;;;4895146;29;19924;-86
2021/10/07 07:08:52;;;;;;;10.93;5.22;;;14.00;91.30;;;;;;4866764;29;20052;-88
2021/10/07 07:11:26;;;;;;;8.38;4.60;;;14.00;91.30;;;;;;4902860;29;20478;-87
2021/10/07 07:13:54;;;;;;;11.43;5.30;;;14.00;91.30;;;;;;4902933;29;20059;-86
2021/10/07 07:16:22;;;;;;;13.35;5.53;;;14.00;91.30;;;;;;4869434;29;20079;-85
2021/10/07 07:18:51;;;;;;;13.43;5.10;;;14.00;91.30;;;;;;4848523;29;20419;-87
2021/10/07 07:21:19;;;;;;;12.95;5.22;;;14.10;91.20;;;;;;4881692;29;20487;-86
2021/10/07 07:23:47;;;;;;;16.35;6.20;;;14.10;91.20;;;;;;4885660;29;20069;-86
2021/10/07 07:26:14;;;;;;;10.38;5.65;;;14.10;91.10;;;;;;4891352;29;20049;-87
2021/10/07 07:28:42;;;;;;;12.30;6.18;;;14.10;91.10;;;;;;4893358;29;20392;-87
2021/10/07 07:31:10;;;;;;;11.48;5.85;;;14.20;91.00;;;;;;4871062;29;20487;-86
2021/10/07 07:33:37;;;;;;;14.63;6.13;;;14.20;90.80;;;;;;4882640;29;20076;-85
2021/10/07 07:36:05;;;;;;;11.70;5.78;;;14.30;90.70;;;;;;4881302;29;20068;-86
2021/10/07 07:38:32;;;;;;;15.07;6.60;;;14.30;90.60;;;;;;4888729;29;20427;-86
2021/10/07 07:41:00;;;;;;;12.55;6.57;;;14.40;90.50;;;;;;4887088;29;20064;-86
2021/10/07 07:43:28;;;;;;;15.95;7.22;;;14.50;90.40;;;;;;4881789;29;20060;-85
2021/10/07 07:45:56;;;;;;;17.58;6.53;;;14.60;90.20;;;;;;4863599;29;20053;-85
2021/10/07 07:48:24;;;;;;;9.38;6.82;;;14.70;89.90;;;;;;4880072;29;20052;-84
2021/10/07 07:50:53;;;;;;;12.52;6.55;;;14.70;89.70;;;;;;4863687;29;20057;-85
2021/10/07 07:53:20;;;;;;;11.82;6.28;;;14.80;89.60;;;;;;4863585;29;20053;-85
2021/10/07 07:55:48;;;;;;;11.18;6.10;;;14.80;89.50;;;;;;4880008;29;20071;-85
2021/10/07 07:58:18;;;;;;;11.10;6.90;;;14.90;89.30;;;;;;4880591;29;20053;-85
2021/10/07 08:00:47;;;;;;;14.90;7.30;;;14.90;89.20;;;;;;4880347;29;20404;-86
2021/10/07 08:03:15;;;;;;;14.02;6.78;;;14.90;89.10;;;;;;4882141;29;20057;-86
2021/10/07 08:05:43;;;;;;;10.98;6.15;;;14.90;89.10;;;;;;4850047;29;20052;-87
2021/10/07 08:08:10;;;;;;;12.02;6.80;;;14.90;89.00;;;;;;4881904;29;20052;-86
2021/10/07 08:10:38;;;;;;;14.60;6.32;;;14.90;89.00;;;;;;4881946;29;20052;-88
2021/10/07 08:13:05;;;;;;;13.88;6.78;;;14.90;89.10;;;;;;4864684;29;20097;-87
2021/10/07 08:15:33;;;;;;;8.23;6.03;;;15.00;88.90;;;;;;4865346;29;20041;-86
2021/10/07 08:18:01;;;;;;;10.98;6.35;;;15.00;88.90;;;;;;4866027;29;20064;-86
2021/10/07 08:20:32;;;;;;;15.02;7.28;;;15.00;88.70;;;;;;4866718;29;20053;-87
2021/10/07 08:22:59;;;;;;;12.70;6.80;;;15.00;88.60;;;;;;4864410;29;20510;-86
2021/10/07 08:25:27;;;;;;;12.75;6.57;;;15.00;88.60;;;;;;4862380;29;20069;-86
2021/10/07 08:27:54;;;;;;;15.15;6.95;;;15.00;88.60;;;;;;4879673;29;20128;-86
2021/10/07 08:30:23;;;;;;;15.27;6.85;;;15.10;88.60;;;;;;4879950;29;20060;-86
2021/10/07 08:32:50;;;;;;;18.45;10.02;;;15.00;88.50;;;;;;4879850;29;20057;-87
2021/10/07 08:35:18;;;;;;;12.20;6.75;;;15.00;88.60;;;;;;4881811;29;20060;-85
2021/10/07 08:37:46;;;;;;;17.27;6.57;;;15.10;88.60;;;;;;4882912;29;20148;-86
2021/10/07 08:40:15;;;;;;;15.35;6.72;;;15.10;88.50;;;;;;4883806;29;20045;-86
2021/10/07 08:42:43;;;;;;;15.23;6.70;;;15.10;88.50;;;;;;4881571;29;20060;-86
2021/10/07 08:45:12;;;;;;;13.48;5.65;;;15.10;88.40;;;;;;4898484;29;20048;-88
2021/10/07 08:47:42;;;;;;;14.90;6.30;;;15.10;88.50;;;;;;4898355;29;20052;-85
2021/10/07 08:50:11;;;;;;;11.73;6.25;;;15.20;88.40;;;;;;4881627;29;20151;-85
2021/10/07 08:52:39;;;;;;;13.68;5.70;;;15.30;88.40;;;;;;4899865;29;20048;-85
2021/10/07 08:55:08;;;;;;;15.10;5.65;;;15.30;88.30;;;;;;4901655;29;20072;-85
2021/10/07 08:57:36;;;;;;;10.20;5.25;;;15.40;88.20;;;;;;4901831;29;20045;-85
2021/10/07 09:00:06;;;;;;;11.82;5.25;;;15.50;88.00;;;;;;4885239;29;20056;-85
2021/10/07 09:02:37;;;;;;;13.38;5.50;;;15.60;87.80;;;;;;4901007;29;20060;-84
2021/10/07 09:05:09;;;;;;;12.60;5.78;;;15.70;87.50;;;;;;4901835;29;20415;-84
2021/10/07 09:07:54;;;;;;;13.85;5.38;;;15.80;87.40;;;;;;4902999;29;20083;-84
2021/10/07 09:10:36;;;;;;;9.95;4.53;;;15.80;87.30;;;;;;4909956;29;20198;-84
2021/10/07 09:13:27;;;;;;;11.32;4.50;;;15.90;87.20;;;;;;4890781;29;20068;-85
2021/10/07 09:15:59;;;;;;;7.40;3.92;;;16.10;86.90;;;;;;4905802;29;20430;-84
2021/10/07 09:18:29;;;;;;;8.95;4.50;;;16.20;86.70;;;;;;4886354;29;20056;-84
2021/10/07 09:20:58;;;;;;;10.25;4.45;;;16.30;86.60;;;;;;4905286;29;20075;-84
2021/10/07 09:23:31;;;;;;;11.90;4.45;;;16.30;86.60;;;;;;4905730;29;20061;-84
2021/10/07 09:26:08;;;;;;;13.45;4.18;;;16.50;86.40;;;;;;4885587;29;20050;-83
2021/10/07 09:28:57;;;;;;;10.48;4.38;;;16.60;86.00;;;;;;4869980;29;20048;-85
2021/10/07 09:31:32;;;;;;;8.40;3.80;;;16.80;85.70;;;;;;4901868;29;20059;-85
2021/10/07 09:34:06;;;;;;;10.43;3.90;;;16.80;85.50;;;;;;4901452;29;20092;-85
2021/10/07 09:36:34;;;;;;;7.47;4.25;;;16.80;85.30;;;;;;4901294;29;20048;-85
2021/10/07 09:39:03;;;;;;;12.55;3.78;;;16.80;85.00;;;;;;4905790;29;20056;-85
2021/10/07 09:41:32;;;;;;;7.40;3.80;;;16.90;85.00;;;;;;4908043;29;20060;-85
2021/10/07 09:44:01;;;;;;;8.25;3.40;;;16.90;85.00;;;;;;4885853;29;20060;-85
2021/10/07 09:46:50;;;;;;;7.63;3.50;;;17.00;84.90;;;;;;4900823;29;20049;-84
2021/10/07 09:49:32;;;;;;;8.18;3.03;;;17.10;84.50;;;;;;4883566;29;20048;-85
2021/10/07 09:52:01;;;;;;;8.23;3.17;;;17.30;84.50;;;;;;4900925;29;20549;-85
2021/10/07 09:54:38;;;;;;;10.13;3.17;;;17.30;84.10;;;;;;4869586;29;20060;-85
2021/10/07 09:57:05;;;;;;;6.55;2.85;;;17.30;83.80;;;;;;4884538;29;20057;-85
2021/10/07 09:59:33;;;;;;;9.45;3.00;;;17.50;83.60;;;;;;4883913;29;20533;-85
2021/10/07 10:02:02;;;;;;;5.85;2.72;;;17.60;83.40;;;;;;4901643;29;20063;-85
2021/10/07 10:04:31;;;;;;;4.90;2.42;;;17.70;82.90;;;;;;4885181;29;20064;-85
2021/10/07 10:06:59;;;;;;;5.90;3.00;;;17.80;82.60;;;;;;4901023;29;20057;-85
2021/10/07 10:09:27;;;;;;;3.33;2.20;;;17.80;82.10;;;;;;4901015;29;20052;-85
2021/10/07 10:11:55;;;;;;;5.97;2.30;;;17.80;81.90;;;;;;4904493;29;20135;-85
2021/10/07 10:14:23;;;;;;;5.13;2.00;;;17.90;82.00;;;;;;4903897;29;20063;-84
2021/10/07 10:16:52;;;;;;;6.15;2.20;;;17.90;81.90;;;;;;4904816;29;20053;-85
2021/10/07 10:19:20;;;;;;;5.15;1.98;;;17.90;81.50;;;;;;4904170;29;20498;-84
2021/10/07 10:21:48;;;;;;;5.03;1.90;;;17.90;81.60;;;;;;4902173;29;20060;-84
2021/10/07 10:24:17;;;;;;;3.60;1.70;;;18.00;81.60;;;;;;4902342;29;20065;-85
2021/10/07 10:26:59;;;;;;;3.13;1.70;;;18.10;81.10;;;;;;4902414;29;20041;-85
2021/10/07 10:29:30;;;;;;;3.70;1.65;;;18.10;81.00;;;;;;4901872;29;20055;-85
2021/10/07 10:31:58;;;;;;;8.45;2.30;;;18.10;80.90;;;;;;4869620;29;20059;-85
2021/10/07 10:34:25;;;;;;;5.35;1.88;;;18.10;81.10;;;;;;4886967;29;20056;-85
2021/10/07 10:37:01;;;;;;;5.90;1.75;;;18.20;81.40;;;;;;4903245;29;20053;-84
2021/10/07 10:39:35;;;;;;;5.35;1.67;;;18.50;81.50;;;;;;4901945;29;20067;-85
2021/10/07 10:42:19;;;;;;;10.10;2.10;;;18.90;80.70;;;;;;4870336;29;20511;-85
2021/10/07 10:44:46;;;;;;;14.52;2.50;;;19.30;79.20;;;;;;4902024;29;20499;-84
2021/10/07 10:47:23;;;;;;;3.45;1.50;;;19.50;77.70;;;;;;4901553;29;20044;-84
2021/10/07 10:50:03;;;;;;;5.53;1.70;;;19.50;76.90;;;;;;4869968;29;20507;-84
2021/10/07 10:52:42;;;;;;;3.38;1.50;;;19.30;77.10;;;;;;4913382;29;20048;-85
2021/10/07 10:55:13;;;;;;;4.13;1.70;;;19.10;77.40;;;;;;4899037;29;20040;-84
2021/10/07 10:57:45;;;;;;;6.45;1.67;;;19.10;77.60;;;;;;4897953;29;20053;-84
2021/10/07 11:00:15;;;;;;;3.95;1.70;;;19.00;78.20;;;;;;4908279;29;20067;-85
2021/10/07 11:02:45;;;;;;;4.78;1.90;;;19.00;78.40;;;;;;4905348;29;20053;-85
2021/10/07 11:05:28;;;;;;;9.50;1.85;;;19.20;78.10;;;;;;4902864;29;20052;-85
2021/10/07 11:08:14;;;;;;;4.40;1.80;;;19.50;77.20;;;;;;4901872;29;20052;-85
2021/10/07 11:11:03;;;;;;;9.43;2.00;;;19.90;75.80;;;;;;4886143;29;20071;-85
2021/10/07 11:13:33;;;;;;;7.18;2.25;;;20.20;74.70;;;;;;4902687;29;20061;-85
2021/10/07 11:16:06;;;;;;;7.43;1.63;;;20.30;73.50;;;;;;4887165;29;20057;-85
2021/10/07 11:18:35;;;;;;;7.95;2.38;;;20.20;73.30;;;;;;4886612;29;20052;-85
2021/10/07 11:21:15;;;;;;;3.72;2.00;;;20.10;73.90;;;;;;4899683;29;20064;-85
2021/10/07 11:23:44;;;;;;;4.25;2.00;;;20.00;74.70;;;;;;4882618;29;20056;-85
2021/10/07 11:26:12;;;;;;;4.97;2.05;;;20.00;74.60;;;;;;4882766;29;20059;-85
2021/10/07 11:28:42;;;;;;;4.63;1.80;;;19.90;74.70;;;;;;4882414;29;20076;-84
2021/10/07 11:31:12;;;;;;;12.50;2.30;;;19.80;75.00;;;;;;4882534;29;20059;-85
2021/10/07 11:33:51;;;;;;;5.10;2.03;;;19.70;75.50;;;;;;4881677;29;20048;-85
2021/10/07 11:36:22;;;;;;;3.60;2.08;;;19.60;75.80;;;;;;4898858;29;20414;-85
2021/10/07 11:38:51;;;;;;;2.33;1.92;;;19.60;76.00;;;;;;4885306;29;20044;-85
2021/10/07 11:41:23;;;;;;;3.95;1.70;;;19.60;76.30;;;;;;4907585;29;20052;-85
2021/10/07 11:43:54;;;;;;;5.68;2.10;;;19.60;76.30;;;;;;4869275;29;20123;-84
2021/10/07 11:46:22;;;;;;;16.05;2.80;;;19.70;76.50;;;;;;4898758;29;20049;-85
2021/10/07 11:48:55;;;;;;;12.68;3.08;;;19.80;75.80;;;;;;4867180;29;20415;-85
2021/10/07 11:51:25;;;;;;;6.65;2.70;;;19.80;75.40;;;;;;4866509;29;20052;-85
2021/10/07 11:53:54;;;;;;;6.35;2.35;;;19.70;75.40;;;;;;4867802;29;20063;-84
2021/10/07 11:56:25;;;;;;;4.35;2.60;;;19.60;76.20;;;;;;4900646;29;20052;-84
2021/10/07 11:58:58;;;;;;;4.93;2.40;;;19.50;76.30;;;;;;4899941;29;20048;-86
2021/10/07 12:01:30;;;;;;;;;;;19.50;76.20;;;;;;4898540;29;20082;-85
2021/10/07 12:04:00;;;;;;;13.20;2.30;;;19.50;76.40;;;;;;4898860;29;19930;-85
2021/10/07 12:06:32;;;;;;;5.22;2.25;;;19.30;76.60;;;;;;4881910;29;20064;-84
2021/10/07 12:09:01;;;;;;;3.78;1.85;;;19.30;76.90;;;;;;4899050;29;20095;-84
2021/10/07 12:11:31;;;;;;;5.68;2.08;;;19.30;76.90;;;;;;4898413;29;20052;-84
2021/10/07 12:14:02;;;;;;;3.17;1.70;;;19.40;77.00;;;;;;4899094;29;20041;-84
2021/10/07 12:16:39;;;;;;;3.15;1.98;;;19.40;76.70;;;;;;4899181;29;20072;-84
2021/10/07 12:19:13;;;;;;;5.80;2.15;;;19.50;76.60;;;;;;4887315;29;20048;-85
2021/10/07 12:21:42;;;;;;;5.10;2.08;;;19.80;76.70;;;;;;4901375;29;20048;-84
2021/10/07 12:24:15;;;;;;;4.70;1.77;;;20.40;74.60;;;;;;4881686;29;20536;-84
2021/10/07 12:26:48;;;;;;;3.05;2.00;;;20.80;73.40;;;;;;4881418;29;20064;-85
2021/10/07 12:29:25;;;;;;;2.78;1.50;;;21.20;72.40;;;;;;4898231;29;20059;-85
2021/10/07 12:32:03;;;;;;;3.28;1.50;;;21.30;71.60;;;;;;4898461;29;20083;-85
2021/10/07 12:34:36;;;;;;;7.90;1.70;;;21.50;70.00;;;;;;4907838;29;20059;-85
2021/10/07 12:37:07;;;;;;;2.28;1.65;;;21.60;69.70;;;;;;4895636;29;20049;-85
2021/10/07 12:39:44;;;;;;;2.55;2.03;;;21.60;69.90;;;;;;4891636;29;20494;-85
2021/10/07 12:42:26;;;;;;;9.00;2.22;;;21.50;69.40;;;;;;4899338;29;20511;-85
2021/10/07 12:44:57;;;;;;;6.30;2.15;;;21.30;69.90;;;;;;4882717;29;20491;-85
2021/10/07 12:47:28;;;;;;;2.80;1.90;;;21.20;70.60;;;;;;4897934;29;20064;-85
2021/10/07 12:49:58;;;;;;;9.15;2.30;;;21.00;70.40;;;;;;4881906;29;20422;-85
2021/10/07 12:52:37;;;;;;;3.95;2.30;;;20.80;70.50;;;;;;4898601;29;20131;-85
2021/10/07 12:55:08;;;;;;;7.00;2.03;;;20.60;71.50;;;;;;4898172;29;20049;-83
2021/10/07 12:57:48;;;;;;;4.38;2.55;;;20.50;72.20;;;;;;4897456;29;20052;-84
2021/10/07 13:00:19;;;;;;;5.70;1.92;;;20.50;72.60;;;;;;4898254;29;20491;-84